createdAt,value
2023-03-22T00:05:22.587Z,18.4
2023-03-22T00:25:23.388Z,18.4
2023-03-22T00:35:23.981Z,18.3
2023-03-22T00:45:24.795Z,18.3
2023-03-22T00:55:25.324Z,18.3
2023-03-22T01:05:26.494Z,18.2
2023-03-22T01:15:26.936Z,18.2
2023-03-22T01:25:27.813Z,18.2
2023-03-22T01:35:28.328Z,18.2
2023-03-22T01:45:29.030Z,18.2
2023-03-22T01:55:29.637Z,18.1
2023-03-22T02:05:30.545Z,18.1
2023-03-22T02:15:31.199Z,18.1
2023-03-22T02:25:31.868Z,18.1
2023-03-22T02:35:32.473Z,18.1
2023-03-22T02:45:32.948Z,18.1
2023-03-22T02:55:33.076Z,18
2023-03-22T03:05:33.336Z,18
2023-03-22T03:15:34.439Z,18
2023-03-22T03:25:35.077Z,18
2023-03-22T03:35:35.327Z,17.9
2023-03-22T03:45:36.302Z,17.9
2023-03-22T03:55:36.443Z,18
2023-03-22T04:05:37.036Z,18.1
2023-03-22T04:15:37.538Z,18.3
2023-03-22T04:35:38.810Z,18.6
2023-03-22T04:45:39.116Z,18.6
2023-03-22T04:55:39.971Z,18.6
2023-03-22T05:05:40.951Z,18.6
2023-03-22T05:15:41.228Z,18.6
2023-03-22T05:25:41.670Z,18.6
2023-03-22T05:35:42.417Z,18.5
2023-03-22T05:55:44.258Z,18.4
2023-03-22T06:05:44.505Z,18.2
2023-03-22T06:25:45.665Z,18.1
2023-03-22T06:35:46.077Z,18.5
2023-03-22T06:45:46.445Z,18.8
2023-03-22T06:55:47.392Z,19.1
2023-03-22T07:05:48.098Z,19.3
2023-03-22T07:15:48.463Z,19.5
2023-03-22T07:35:49.195Z,19.7
2023-03-22T07:55:50.654Z,20
2023-03-22T08:05:51.718Z,20.1
2023-03-22T08:15:52.159Z,20.1
2023-03-22T08:25:52.396Z,20.2
2023-03-22T08:35:52.636Z,20.2
2023-03-22T08:55:54.553Z,20.3
2023-03-22T09:05:54.757Z,20.3
2023-03-22T09:15:55.435Z,20.3
2023-03-22T09:25:56.232Z,20.4
2023-03-22T09:35:56.480Z,20.4
2023-03-22T09:45:57.329Z,20.5
2023-03-22T09:55:57.547Z,20.5
2023-03-22T10:05:57.949Z,20.5
2023-03-22T10:15:58.406Z,20.4
2023-03-22T10:25:59.103Z,20.3
2023-03-22T10:36:00.038Z,20.3
2023-03-22T10:46:00.931Z,20.5
2023-03-22T10:56:01.425Z,20.5
2023-03-22T11:06:01.723Z,20.7
2023-03-22T11:16:02.476Z,20.8
2023-03-22T11:26:02.895Z,20.9
2023-03-22T11:36:03.786Z,20.9
2023-03-22T11:46:04.017Z,20.9
2023-03-22T11:56:04.736Z,20.9
2023-03-22T12:06:05.450Z,21
2023-03-22T12:16:05.749Z,21.3
2023-03-22T12:26:06.729Z,21.3
2023-03-22T12:36:07.694Z,21.1
2023-03-22T12:46:08.219Z,20.5
2023-03-22T12:56:09.057Z,20.3
2023-03-22T13:06:10.054Z,20.3
2023-03-22T13:16:11.320Z,20.3
2023-03-22T13:46:13.272Z,20.5
2023-03-22T13:56:13.717Z,20.5
2023-03-22T14:06:14.812Z,20.5
2023-03-22T14:16:15.544Z,20.4
2023-03-22T14:56:18.929Z,20.2
2023-03-22T15:06:19.432Z,20.1
2023-03-22T15:16:20.283Z,20
2023-03-22T15:26:20.545Z,19.9
2023-03-22T15:36:20.958Z,19.8
2023-03-22T15:46:21.923Z,19.7
2023-03-22T16:36:24.852Z,19.4
2023-03-22T16:56:26.220Z,19.3
2023-03-22T17:06:26.607Z,19.2
2023-03-22T17:16:28.402Z,19.2
2023-03-22T17:26:27.884Z,19.1
2023-03-22T17:36:28.802Z,19.1
2023-03-22T17:46:58.792Z,19.1
2023-03-22T17:56:55.280Z,19.1
2023-03-22T18:06:30.923Z,19
2023-03-22T18:16:52.643Z,19
2023-03-22T18:26:31.740Z,19
2023-03-22T19:06:34.423Z,18.9
2023-03-22T19:16:35.316Z,18.9
2023-03-22T19:26:35.482Z,18.9
2023-03-22T19:36:36.116Z,18.9
2023-03-22T19:56:37.450Z,18.9
2023-03-22T20:06:38.192Z,18.9
2023-03-22T20:16:39.173Z,18.9
2023-03-22T20:26:40.148Z,18.9
2023-03-22T20:36:40.406Z,18.9
2023-03-22T20:46:41.435Z,18.9
2023-03-22T20:56:42.418Z,18.8
2023-03-22T21:06:42.581Z,18.8
2023-03-22T22:26:45.761Z,18.7
